Date,TemperatureHighF,TemperatureAvgF,TemperatureLowF,DewpointHighF,DewpointAvgF,DewpointLowF,HumidityHigh,HumidityAvg,HumidityLow,PressureMaxIn,PressureMinIn,WindSpeedMaxMPH,WindSpeedAvgMPH,GustSpeedMaxMPH,PrecipitationSumIn
2013-1-1,36.5,30.3,17.6,23.6,14.6,3.2,67,52,43,29.79,29.59,23,4,23,0.00
2013-1-2,32.7,21.4,10.6,13.1,6.0,-1.9,66,51,43,29.97,29.76,17,3,17,0.00
2013-1-3,29.8,15.4,2.7,10.4,-0.1,-12.1,57,50,43,30.00,29.82,6,1,6,0.00
2013-1-4,39.6,27.8,13.8,23.1,15.7,7.3,83,61,48,29.82,29.68,14,3,14,0.00
2013-1-5,41.9,33.7,21.4,20.9,17.5,11.9,74,52,41,30.09,29.74,20,4,20,0.00
2013-1-6,47.5,32.1,22.3,28.3,22.1,14.7,82,68,45,30.03,29.76,9,1,9,0.00
2013-1-7,41.9,31.4,16.7,28.2,19.1,10.5,87,62,40,30.21,29.82,11,2,11,0.00
2013-1-8,48.9,31.1,15.6,28.5,20.6,10.0,84,67,42,30.21,30.09,12,2,12,0.00
2013-1-9,39.0,30.5,18.7,31.9,24.3,14.9,88,78,64,30.21,29.85,10,1,10,0.00
2013-1-10,47.1,38.7,25.9,27.7,21.2,18.4,76,50,39,30.36,29.91,26,4,26,0.00
2013-1-11,35.6,29.9,22.5,32.6,24.3,17.7,96,80,62,30.36,30.00,4,0,4,0.00
2013-1-12,41.5,37.2,33.6,40.8,36.7,32.6,100,98,95,30.03,29.94,4,0,4,0.00
2013-1-13,45.3,41.4,36.3,45.3,41.4,36.3,100,100,100,29.97,29.82,7,1,7,0.00
2013-1-14,53.2,45.3,36.7,51.4,36.8,21.8,100,75,43,30.12,29.71,17,3,17,0.00
2013-1-15,39.7,34.9,28.9,24.7,21.6,20.2,77,58,48,30.15,30.06,8,1,8,0.00
2013-1-16,33.3,32.0,29.8,32.0,28.9,21.4,98,89,63,30.06,29.68,5,1,5,0.00
2013-1-17,39.9,32.6,26.6,34.1,23.7,9.1,99,73,45,29.94,29.68,15,2,15,0.00
2013-1-18,27.7,22.8,19.0,9.6,2.6,-3.0,50,41,35,30.27,29.88,19,3,19,0.00
2013-1-19,47.3,35.1,22.5,29.5,19.4,6.2,68,53,40,30.18,29.71,17,4,17,0.00
2013-1-20,49.6,38.6,27.3,29.3,21.6,6.4,70,51,30,29.79,29.41,20,5,20,0.00
2013-1-21,29.5,23.9,18.3,18.0,10.3,4.7,81,57,41,29.91,29.62,13,2,13,0.00
2013-1-22,23.7,18.5,11.1,17.2,3.1,-4.3,83,52,35,29.94,29.59,17,4,17,0.00
2013-1-23,15.8,10.2,6.6,4.2,-5.2,-14.1,65,51,37,30.00,29.91,24,5,24,0.00
2013-1-24,20.3,10.7,2.1,-3.0,-10.9,-18.2,40,36,34,30.12,29.94,23,5,23,0.00
2013-1-25,25.5,16.0,8.4,5.4,-5.2,-13.0,60,38,35,30.18,29.88,13,3,13,0.00
2013-1-26,26.4,16.6,9.5,7.0,1.1,-4.1,64,51,35,30.12,29.85,18,2,18,0.00
2013-1-27,34.2,20.3,8.6,8.3,0.7,-6.6,60,42,32,30.30,30.12,14,2,14,0.00
2013-1-28,29.5,24.4,15.4,25.9,13.6,0.1,91,65,40,30.30,29.82,10,1,10,0.00
2013-1-29,36.0,30.5,25.5,31.6,26.9,23.4,95,87,73,30.00,29.82,6,1,6,0.00
2013-1-30,54.7,43.2,32.5,54.7,42.8,31.5,100,99,95,29.94,29.26,16,3,16,0.00
2013-1-31,58.8,45.7,30.4,58.8,33.4,10.6,100,66,36,29.47,28.85,37,8,37,0.00